sensor_id;sensor_type;location;lat;lon;timestamp;P1;durP1;ratioP1;P2;durP2;ratioP2
691;SDS011;328;50.086;8.576;2023-02-18T00:00:55;4.93;;;4.27;;
691;SDS011;328;50.086;8.576;2023-02-18T00:03:23;4.97;;;3.20;;
691;SDS011;328;50.086;8.576;2023-02-18T00:05:51;4.27;;;3.23;;
691;SDS011;328;50.086;8.576;2023-02-18T00:08:19;4.10;;;3.20;;
691;SDS011;328;50.086;8.576;2023-02-18T00:10:47;4.87;;;3.23;;
691;SDS011;328;50.086;8.576;2023-02-18T00:13:14;4.00;;;2.73;;
691;SDS011;328;50.086;8.576;2023-02-18T00:15:43;4.80;;;3.17;;
691;SDS011;328;50.086;8.576;2023-02-18T00:18:11;4.20;;;3.20;;
691;SDS011;328;50.086;8.576;2023-02-18T00:20:38;3.90;;;3.20;;
691;SDS011;328;50.086;8.576;2023-02-18T00:23:06;3.57;;;2.73;;
691;SDS011;328;50.086;8.576;2023-02-18T00:25:34;3.37;;;2.37;;
691;SDS011;328;50.086;8.576;2023-02-18T00:28:01;3.57;;;2.47;;
691;SDS011;328;50.086;8.576;2023-02-18T00:30:29;3.00;;;2.47;;
691;SDS011;328;50.086;8.576;2023-02-18T00:32:58;3.93;;;3.27;;
691;SDS011;328;50.086;8.576;2023-02-18T00:35:26;5.33;;;3.43;;
691;SDS011;328;50.086;8.576;2023-02-18T00:37:53;5.97;;;4.97;;
691;SDS011;328;50.086;8.576;2023-02-18T00:40:21;7.23;;;4.43;;
691;SDS011;328;50.086;8.576;2023-02-18T00:42:49;4.20;;;3.70;;
691;SDS011;328;50.086;8.576;2023-02-18T00:45:16;6.13;;;5.40;;
691;SDS011;328;50.086;8.576;2023-02-18T00:47:44;6.27;;;5.00;;
691;SDS011;328;50.086;8.576;2023-02-18T00:50:12;6.87;;;5.20;;
691;SDS011;328;50.086;8.576;2023-02-18T00:52:40;5.67;;;4.40;;
691;SDS011;328;50.086;8.576;2023-02-18T00:55:07;6.47;;;4.87;;
691;SDS011;328;50.086;8.576;2023-02-18T00:57:35;5.37;;;4.83;;
691;SDS011;328;50.086;8.576;2023-02-18T01:00:03;7.60;;;5.40;;
691;SDS011;328;50.086;8.576;2023-02-18T01:02:31;5.50;;;4.80;;
691;SDS011;328;50.086;8.576;2023-02-18T01:04:58;5.97;;;5.20;;
691;SDS011;328;50.086;8.576;2023-02-18T01:07:27;4.73;;;4.00;;
691;SDS011;328;50.086;8.576;2023-02-18T01:09:55;4.60;;;3.93;;
691;SDS011;328;50.086;8.576;2023-02-18T01:12:22;5.73;;;4.60;;
691;SDS011;328;50.086;8.576;2023-02-18T01:14:50;5.30;;;4.30;;
691;SDS011;328;50.086;8.576;2023-02-18T01:17:18;9.20;;;5.37;;
691;SDS011;328;50.086;8.576;2023-02-18T01:19:45;3.37;;;2.77;;
691;SDS011;328;50.086;8.576;2023-02-18T01:22:13;6.33;;;3.27;;
691;SDS011;328;50.086;8.576;2023-02-18T01:24:42;4.37;;;3.40;;
691;SDS011;328;50.086;8.576;2023-02-18T01:27:11;3.53;;;2.90;;
691;SDS011;328;50.086;8.576;2023-02-18T01:29:39;6.10;;;4.10;;
691;SDS011;328;50.086;8.576;2023-02-18T01:32:07;4.03;;;3.30;;
691;SDS011;328;50.086;8.576;2023-02-18T01:34:34;4.47;;;3.40;;
691;SDS011;328;50.086;8.576;2023-02-18T01:37:02;4.90;;;3.17;;
691;SDS011;328;50.086;8.576;2023-02-18T01:39:30;4.83;;;3.90;;
691;SDS011;328;50.086;8.576;2023-02-18T01:41:59;4.47;;;3.40;;
691;SDS011;328;50.086;8.576;2023-02-18T01:44:27;7.07;;;3.50;;
691;SDS011;328;50.086;8.576;2023-02-18T01:46:55;3.60;;;2.67;;
691;SDS011;328;50.086;8.576;2023-02-18T01:49:24;4.07;;;2.50;;
691;SDS011;328;50.086;8.576;2023-02-18T01:51:54;3.10;;;2.67;;
691;SDS011;328;50.086;8.576;2023-02-18T01:54:25;2.90;;;2.33;;
691;SDS011;328;50.086;8.576;2023-02-18T01:56:55;1.67;;;1.50;;
691;SDS011;328;50.086;8.576;2023-02-18T01:59:26;3.00;;;1.93;;
691;SDS011;328;50.086;8.576;2023-02-18T02:01:58;2.50;;;1.47;;
691;SDS011;328;50.086;8.576;2023-02-18T02:04:25;2.70;;;2.00;;
691;SDS011;328;50.086;8.576;2023-02-18T02:06:53;2.70;;;1.60;;
691;SDS011;328;50.086;8.576;2023-02-18T02:09:21;2.30;;;1.50;;
691;SDS011;328;50.086;8.576;2023-02-18T02:14:49;1.77;;;1.20;;
691;SDS011;328;50.086;8.576;2023-02-18T02:17:34;1.30;;;1.10;;
691;SDS011;328;50.086;8.576;2023-02-18T02:20:23;1.10;;;0.93;;
691;SDS011;328;50.086;8.576;2023-02-18T02:23:40;1.50;;;1.20;;
691;SDS011;328;50.086;8.576;2023-02-18T02:26:35;1.53;;;1.10;;
691;SDS011;328;50.086;8.576;2023-02-18T02:29:24;1.20;;;1.10;;
691;SDS011;328;50.086;8.576;2023-02-18T02:32:21;1.53;;;1.20;;
691;SDS011;328;50.086;8.576;2023-02-18T02:35:08;0.80;;;0.70;;
691;SDS011;328;50.086;8.576;2023-02-18T02:37:37;1.03;;;0.80;;
691;SDS011;328;50.086;8.576;2023-02-18T02:40:12;1.03;;;0.70;;
691;SDS011;328;50.086;8.576;2023-02-18T02:42:45;0.90;;;0.67;;
691;SDS011;328;50.086;8.576;2023-02-18T02:45:22;2.40;;;0.80;;
691;SDS011;328;50.086;8.576;2023-02-18T02:47:58;1.60;;;0.90;;
691;SDS011;328;50.086;8.576;2023-02-18T02:50:32;2.60;;;0.70;;
691;SDS011;328;50.086;8.576;2023-02-18T02:53:05;1.20;;;0.70;;
691;SDS011;328;50.086;8.576;2023-02-18T02:55:37;0.90;;;0.70;;
691;SDS011;328;50.086;8.576;2023-02-18T02:58:05;1.93;;;0.80;;
691;SDS011;328;50.086;8.576;2023-02-18T03:00:35;2.20;;;0.80;;
691;SDS011;328;50.086;8.576;2023-02-18T03:03:14;0.90;;;0.60;;
691;SDS011;328;50.086;8.576;2023-02-18T03:05:51;0.83;;;0.60;;
691;SDS011;328;50.086;8.576;2023-02-18T03:08:29;2.07;;;0.80;;
691;SDS011;328;50.086;8.576;2023-02-18T03:11:05;1.60;;;0.67;;
691;SDS011;328;50.086;8.576;2023-02-18T03:13:38;1.00;;;0.63;;
691;SDS011;328;50.086;8.576;2023-02-18T03:16:20;2.30;;;0.80;;
691;SDS011;328;50.086;8.576;2023-02-18T03:18:54;1.00;;;0.80;;
691;SDS011;328;50.086;8.576;2023-02-18T03:21:27;0.93;;;0.67;;
691;SDS011;328;50.086;8.576;2023-02-18T03:23:57;1.00;;;0.80;;
691;SDS011;328;50.086;8.576;2023-02-18T03:26:29;1.00;;;0.70;;
691;SDS011;328;50.086;8.576;2023-02-18T03:28:58;0.80;;;0.70;;
691;SDS011;328;50.086;8.576;2023-02-18T03:31:28;2.07;;;0.90;;
691;SDS011;328;50.086;8.576;2023-02-18T03:33:58;1.67;;;0.93;;
691;SDS011;328;50.086;8.576;2023-02-18T03:36:30;1.00;;;0.70;;
691;SDS011;328;50.086;8.576;2023-02-18T03:39:00;1.97;;;0.80;;
691;SDS011;328;50.086;8.576;2023-02-18T03:41:30;1.00;;;0.80;;
691;SDS011;328;50.086;8.576;2023-02-18T03:43:59;1.17;;;0.70;;
691;SDS011;328;50.086;8.576;2023-02-18T03:46:28;1.10;;;0.70;;
691;SDS011;328;50.086;8.576;2023-02-18T03:48:56;0.90;;;0.70;;
691;SDS011;328;50.086;8.576;2023-02-18T03:51:24;0.90;;;0.70;;
691;SDS011;328;50.086;8.576;2023-02-18T03:53:53;1.73;;;0.63;;
691;SDS011;328;50.086;8.576;2023-02-18T03:56:20;1.77;;;0.77;;
691;SDS011;328;50.086;8.576;2023-02-18T03:58:48;1.30;;;0.90;;
691;SDS011;328;50.086;8.576;2023-02-18T04:01:16;1.00;;;0.70;;
691;SDS011;328;50.086;8.576;2023-02-18T04:03:43;1.67;;;0.90;;
691;SDS011;328;50.086;8.576;2023-02-18T04:06:11;1.60;;;0.60;;
691;SDS011;328;50.086;8.576;2023-02-18T04:08:39;1.00;;;0.80;;
691;SDS011;328;50.086;8.576;2023-02-18T04:11:07;1.13;;;0.70;;
691;SDS011;328;50.086;8.576;2023-02-18T04:13:35;1.20;;;0.90;;
691;SDS011;328;50.086;8.576;2023-02-18T04:16:03;1.10;;;0.90;;
691;SDS011;328;50.086;8.576;2023-02-18T04:18:31;1.50;;;1.00;;
691;SDS011;328;50.086;8.576;2023-02-18T04:20:59;1.10;;;0.90;;
691;SDS011;328;50.086;8.576;2023-02-18T04:23:26;1.10;;;0.83;;
691;SDS011;328;50.086;8.576;2023-02-18T04:25:54;1.57;;;0.97;;
691;SDS011;328;50.086;8.576;2023-02-18T04:28:23;2.23;;;0.83;;
691;SDS011;328;50.086;8.576;2023-02-18T04:30:50;1.10;;;0.83;;
691;SDS011;328;50.086;8.576;2023-02-18T04:33:18;0.90;;;0.60;;
691;SDS011;328;50.086;8.576;2023-02-18T04:35:45;2.60;;;1.00;;
691;SDS011;328;50.086;8.576;2023-02-18T04:38:13;1.30;;;0.67;;
691;SDS011;328;50.086;8.576;2023-02-18T04:40:40;1.63;;;1.00;;
691;SDS011;328;50.086;8.576;2023-02-18T04:43:08;1.10;;;0.93;;
691;SDS011;328;50.086;8.576;2023-02-18T04:45:36;2.90;;;0.80;;
691;SDS011;328;50.086;8.576;2023-02-18T04:48:04;1.23;;;0.93;;
691;SDS011;328;50.086;8.576;2023-02-18T04:50:31;1.60;;;1.10;;
691;SDS011;328;50.086;8.576;2023-02-18T04:52:59;1.27;;;0.90;;
691;SDS011;328;50.086;8.576;2023-02-18T04:55:27;1.30;;;0.90;;
691;SDS011;328;50.086;8.576;2023-02-18T04:57:54;2.90;;;1.10;;
691;SDS011;328;50.086;8.576;2023-02-18T05:00:22;1.00;;;0.70;;
691;SDS011;328;50.086;8.576;2023-02-18T05:02:57;1.50;;;1.10;;
691;SDS011;328;50.086;8.576;2023-02-18T05:05:24;1.10;;;0.73;;
691;SDS011;328;50.086;8.576;2023-02-18T05:07:52;3.10;;;1.27;;
691;SDS011;328;50.086;8.576;2023-02-18T05:10:19;2.50;;;1.00;;
691;SDS011;328;50.086;8.576;2023-02-18T05:12:47;1.40;;;1.00;;
691;SDS011;328;50.086;8.576;2023-02-18T05:15:14;1.43;;;0.93;;
691;SDS011;328;50.086;8.576;2023-02-18T05:17:42;2.00;;;1.07;;
691;SDS011;328;50.086;8.576;2023-02-18T05:20:11;1.50;;;1.20;;
691;SDS011;328;50.086;8.576;2023-02-18T05:22:42;2.17;;;1.60;;
691;SDS011;328;50.086;8.576;2023-02-18T05:25:09;1.70;;;1.23;;
691;SDS011;328;50.086;8.576;2023-02-18T05:27:37;1.77;;;1.43;;
691;SDS011;328;50.086;8.576;2023-02-18T05:30:05;1.30;;;0.77;;
691;SDS011;328;50.086;8.576;2023-02-18T05:32:33;1.57;;;1.00;;
691;SDS011;328;50.086;8.576;2023-02-18T05:35:01;0.97;;;0.73;;
691;SDS011;328;50.086;8.576;2023-02-18T05:37:30;0.97;;;0.70;;
691;SDS011;328;50.086;8.576;2023-02-18T05:39:57;2.33;;;1.10;;
691;SDS011;328;50.086;8.576;2023-02-18T05:42:25;1.37;;;1.00;;
691;SDS011;328;50.086;8.576;2023-02-18T05:44:52;1.90;;;1.37;;
691;SDS011;328;50.086;8.576;2023-02-18T05:47:20;1.90;;;1.47;;
691;SDS011;328;50.086;8.576;2023-02-18T05:49:47;2.03;;;1.50;;
691;SDS011;328;50.086;8.576;2023-02-18T05:52:16;3.17;;;1.30;;
691;SDS011;328;50.086;8.576;2023-02-18T05:54:45;3.03;;;2.73;;
691;SDS011;328;50.086;8.576;2023-02-18T05:57:12;2.03;;;1.27;;
691;SDS011;328;50.086;8.576;2023-02-18T05:59:40;1.47;;;1.37;;
691;SDS011;328;50.086;8.576;2023-02-18T06:02:08;1.97;;;1.50;;
691;SDS011;328;50.086;8.576;2023-02-18T06:04:35;2.23;;;1.40;;
691;SDS011;328;50.086;8.576;2023-02-18T06:07:03;1.80;;;1.40;;
691;SDS011;328;50.086;8.576;2023-02-18T06:09:30;2.73;;;1.33;;
691;SDS011;328;50.086;8.576;2023-02-18T06:11:59;1.80;;;1.13;;
691;SDS011;328;50.086;8.576;2023-02-18T06:14:27;2.50;;;1.53;;
691;SDS011;328;50.086;8.576;2023-02-18T06:16:54;1.80;;;1.13;;
691;SDS011;328;50.086;8.576;2023-02-18T06:19:22;1.80;;;1.57;;
691;SDS011;328;50.086;8.576;2023-02-18T06:21:49;2.07;;;1.40;;
691;SDS011;328;50.086;8.576;2023-02-18T06:24:17;2.40;;;1.70;;
691;SDS011;328;50.086;8.576;2023-02-18T06:26:44;1.80;;;1.57;;
691;SDS011;328;50.086;8.576;2023-02-18T06:29:13;2.07;;;1.50;;
691;SDS011;328;50.086;8.576;2023-02-18T06:31:41;2.03;;;1.60;;
691;SDS011;328;50.086;8.576;2023-02-18T06:34:08;1.73;;;1.50;;
691;SDS011;328;50.086;8.576;2023-02-18T06:36:36;4.63;;;1.80;;
691;SDS011;328;50.086;8.576;2023-02-18T06:39:04;4.93;;;1.47;;
691;SDS011;328;50.086;8.576;2023-02-18T06:41:32;2.33;;;1.33;;
691;SDS011;328;50.086;8.576;2023-02-18T06:44:00;2.53;;;1.27;;
691;SDS011;328;50.086;8.576;2023-02-18T06:46:29;2.13;;;1.67;;
691;SDS011;328;50.086;8.576;2023-02-18T06:48:56;2.73;;;1.63;;
691;SDS011;328;50.086;8.576;2023-02-18T06:51:24;1.60;;;1.30;;
691;SDS011;328;50.086;8.576;2023-02-18T06:53:51;3.17;;;1.50;;
691;SDS011;328;50.086;8.576;2023-02-18T06:56:19;3.93;;;1.30;;
691;SDS011;328;50.086;8.576;2023-02-18T06:58:46;2.07;;;1.73;;
691;SDS011;328;50.086;8.576;2023-02-18T07:01:14;2.80;;;1.80;;
691;SDS011;328;50.086;8.576;2023-02-18T07:03:43;4.50;;;2.07;;
691;SDS011;328;50.086;8.576;2023-02-18T07:06:13;4.30;;;1.97;;
691;SDS011;328;50.086;8.576;2023-02-18T07:08:41;2.50;;;1.90;;
691;SDS011;328;50.086;8.576;2023-02-18T07:11:08;3.40;;;2.47;;
691;SDS011;328;50.086;8.576;2023-02-18T07:13:36;1.83;;;1.63;;
691;SDS011;328;50.086;8.576;2023-02-18T07:16:03;2.17;;;1.83;;
691;SDS011;328;50.086;8.576;2023-02-18T07:18:32;2.10;;;1.90;;
691;SDS011;328;50.086;8.576;2023-02-18T07:21:01;2.63;;;1.90;;
691;SDS011;328;50.086;8.576;2023-02-18T07:23:29;3.67;;;1.90;;
691;SDS011;328;50.086;8.576;2023-02-18T07:26:03;2.13;;;1.20;;
691;SDS011;328;50.086;8.576;2023-02-18T07:28:32;5.40;;;1.70;;
691;SDS011;328;50.086;8.576;2023-02-18T07:30:59;1.20;;;1.00;;
691;SDS011;328;50.086;8.576;2023-02-18T07:33:27;1.67;;;1.10;;
691;SDS011;328;50.086;8.576;2023-02-18T07:35:55;1.40;;;1.07;;
691;SDS011;328;50.086;8.576;2023-02-18T07:38:25;2.00;;;1.20;;
691;SDS011;328;50.086;8.576;2023-02-18T07:40:54;1.70;;;1.30;;
691;SDS011;328;50.086;8.576;2023-02-18T07:43:22;2.03;;;1.50;;
691;SDS011;328;50.086;8.576;2023-02-18T07:45:50;4.50;;;1.43;;
691;SDS011;328;50.086;8.576;2023-02-18T07:48:17;2.10;;;1.43;;
691;SDS011;328;50.086;8.576;2023-02-18T07:50:45;3.80;;;1.60;;
691;SDS011;328;50.086;8.576;2023-02-18T07:53:14;3.03;;;1.43;;
691;SDS011;328;50.086;8.576;2023-02-18T07:55:43;2.17;;;1.27;;
691;SDS011;328;50.086;8.576;2023-02-18T07:58:17;2.50;;;2.30;;
691;SDS011;328;50.086;8.576;2023-02-18T08:00:46;2.20;;;1.83;;
691;SDS011;328;50.086;8.576;2023-02-18T08:03:15;1.80;;;1.40;;
691;SDS011;328;50.086;8.576;2023-02-18T08:05:43;2.70;;;2.23;;
691;SDS011;328;50.086;8.576;2023-02-18T08:08:11;2.57;;;2.10;;
691;SDS011;328;50.086;8.576;2023-02-18T08:10:39;2.50;;;2.20;;
691;SDS011;328;50.086;8.576;2023-02-18T08:13:09;4.60;;;2.03;;
691;SDS011;328;50.086;8.576;2023-02-18T08:15:37;2.37;;;2.00;;
691;SDS011;328;50.086;8.576;2023-02-18T08:18:05;6.17;;;2.37;;
691;SDS011;328;50.086;8.576;2023-02-18T08:20:34;3.87;;;2.20;;
691;SDS011;328;50.086;8.576;2023-02-18T08:23:03;2.17;;;1.97;;
691;SDS011;328;50.086;8.576;2023-02-18T08:25:31;3.20;;;2.23;;
691;SDS011;328;50.086;8.576;2023-02-18T08:27:59;3.77;;;2.80;;
691;SDS011;328;50.086;8.576;2023-02-18T08:30:28;2.77;;;2.00;;
691;SDS011;328;50.086;8.576;2023-02-18T08:32:55;4.20;;;2.53;;
691;SDS011;328;50.086;8.576;2023-02-18T08:35:23;3.27;;;2.20;;
691;SDS011;328;50.086;8.576;2023-02-18T08:37:50;3.57;;;2.70;;
691;SDS011;328;50.086;8.576;2023-02-18T08:40:19;3.50;;;2.30;;
691;SDS011;328;50.086;8.576;2023-02-18T08:42:47;3.10;;;2.60;;
691;SDS011;328;50.086;8.576;2023-02-18T08:45:15;3.00;;;2.70;;
691;SDS011;328;50.086;8.576;2023-02-18T08:47:44;2.63;;;2.30;;
691;SDS011;328;50.086;8.576;2023-02-18T08:50:31;2.57;;;2.37;;
691;SDS011;328;50.086;8.576;2023-02-18T08:52:59;2.87;;;2.23;;
691;SDS011;328;50.086;8.576;2023-02-18T08:55:28;4.37;;;2.63;;
691;SDS011;328;50.086;8.576;2023-02-18T08:57:56;2.67;;;2.47;;
691;SDS011;328;50.086;8.576;2023-02-18T09:00:23;2.83;;;1.93;;
691;SDS011;328;50.086;8.576;2023-02-18T09:02:52;1.80;;;1.70;;
691;SDS011;328;50.086;8.576;2023-02-18T09:05:20;2.30;;;1.90;;
691;SDS011;328;50.086;8.576;2023-02-18T09:07:47;2.27;;;1.50;;
691;SDS011;328;50.086;8.576;2023-02-18T09:10:15;2.17;;;1.90;;
691;SDS011;328;50.086;8.576;2023-02-18T09:12:42;2.13;;;1.83;;
691;SDS011;328;50.086;8.576;2023-02-18T09:15:10;2.90;;;1.87;;
691;SDS011;328;50.086;8.576;2023-02-18T09:17:38;1.50;;;1.13;;
691;SDS011;328;50.086;8.576;2023-02-18T09:20:07;1.57;;;1.40;;
691;SDS011;328;50.086;8.576;2023-02-18T09:22:35;2.20;;;1.40;;
691;SDS011;328;50.086;8.576;2023-02-18T09:25:03;1.70;;;1.37;;
691;SDS011;328;50.086;8.576;2023-02-18T09:27:31;1.70;;;1.07;;
691;SDS011;328;50.086;8.576;2023-02-18T09:29:58;2.33;;;1.87;;
691;SDS011;328;50.086;8.576;2023-02-18T09:32:26;2.73;;;1.50;;
691;SDS011;328;50.086;8.576;2023-02-18T09:35:00;1.43;;;1.00;;
691;SDS011;328;50.086;8.576;2023-02-18T09:37:29;1.93;;;1.13;;
691;SDS011;328;50.086;8.576;2023-02-18T09:39:59;2.60;;;1.73;;
691;SDS011;328;50.086;8.576;2023-02-18T09:42:27;2.43;;;1.60;;
691;SDS011;328;50.086;8.576;2023-02-18T09:44:58;5.53;;;1.53;;
691;SDS011;328;50.086;8.576;2023-02-18T09:47:29;2.40;;;1.73;;
691;SDS011;328;50.086;8.576;2023-02-18T09:49:59;1.57;;;1.10;;
691;SDS011;328;50.086;8.576;2023-02-18T09:52:33;1.70;;;1.07;;
691;SDS011;328;50.086;8.576;2023-02-18T09:55:13;2.87;;;1.63;;
691;SDS011;328;50.086;8.576;2023-02-18T09:57:44;1.67;;;1.13;;
691;SDS011;328;50.086;8.576;2023-02-18T10:00:16;1.43;;;0.80;;
691;SDS011;328;50.086;8.576;2023-02-18T10:02:48;1.67;;;0.70;;
691;SDS011;328;50.086;8.576;2023-02-18T10:05:23;1.23;;;0.70;;
691;SDS011;328;50.086;8.576;2023-02-18T10:07:53;1.40;;;1.10;;
691;SDS011;328;50.086;8.576;2023-02-18T10:10:28;2.40;;;1.00;;
691;SDS011;328;50.086;8.576;2023-02-18T10:13:00;1.20;;;0.57;;
691;SDS011;328;50.086;8.576;2023-02-18T10:15:29;1.73;;;0.67;;
691;SDS011;328;50.086;8.576;2023-02-18T10:17:58;1.40;;;0.80;;
691;SDS011;328;50.086;8.576;2023-02-18T10:20:26;0.87;;;0.63;;
691;SDS011;328;50.086;8.576;2023-02-18T10:22:57;0.80;;;0.60;;
691;SDS011;328;50.086;8.576;2023-02-18T10:25:26;0.90;;;0.70;;
691;SDS011;328;50.086;8.576;2023-02-18T10:27:54;1.00;;;0.60;;
691;SDS011;328;50.086;8.576;2023-02-18T10:30:28;1.23;;;0.80;;
691;SDS011;328;50.086;8.576;2023-02-18T10:32:59;0.80;;;0.50;;
691;SDS011;328;50.086;8.576;2023-02-18T10:35:43;1.20;;;0.67;;
691;SDS011;328;50.086;8.576;2023-02-18T10:38:19;1.07;;;0.70;;
691;SDS011;328;50.086;8.576;2023-02-18T10:40:53;0.90;;;0.70;;
691;SDS011;328;50.086;8.576;2023-02-18T10:43:26;0.70;;;0.60;;
691;SDS011;328;50.086;8.576;2023-02-18T10:45:59;0.90;;;0.60;;
691;SDS011;328;50.086;8.576;2023-02-18T10:48:38;1.20;;;0.63;;
691;SDS011;328;50.086;8.576;2023-02-18T10:51:20;0.80;;;0.60;;
691;SDS011;328;50.086;8.576;2023-02-18T10:53:50;0.87;;;0.50;;
691;SDS011;328;50.086;8.576;2023-02-18T10:56:30;0.80;;;0.57;;
691;SDS011;328;50.086;8.576;2023-02-18T10:59:05;0.80;;;0.50;;
691;SDS011;328;50.086;8.576;2023-02-18T11:01:36;0.80;;;0.50;;
691;SDS011;328;50.086;8.576;2023-02-18T11:04:06;2.13;;;0.70;;
691;SDS011;328;50.086;8.576;2023-02-18T11:06:38;1.17;;;0.60;;
691;SDS011;328;50.086;8.576;2023-02-18T11:09:12;1.00;;;0.60;;
691;SDS011;328;50.086;8.576;2023-02-18T11:11:51;3.70;;;0.73;;
691;SDS011;328;50.086;8.576;2023-02-18T11:14:37;1.63;;;0.57;;
691;SDS011;328;50.086;8.576;2023-02-18T11:17:14;0.90;;;0.50;;
691;SDS011;328;50.086;8.576;2023-02-18T11:19:50;0.90;;;0.50;;
691;SDS011;328;50.086;8.576;2023-02-18T11:22:19;0.87;;;0.67;;
691;SDS011;328;50.086;8.576;2023-02-18T11:24:53;0.80;;;0.50;;
691;SDS011;328;50.086;8.576;2023-02-18T11:27:22;0.70;;;0.53;;
691;SDS011;328;50.086;8.576;2023-02-18T11:29:53;0.70;;;0.50;;
691;SDS011;328;50.086;8.576;2023-02-18T11:32:25;1.90;;;0.50;;
691;SDS011;328;50.086;8.576;2023-02-18T11:34:53;2.00;;;0.67;;
691;SDS011;328;50.086;8.576;2023-02-18T11:37:21;0.80;;;0.57;;
691;SDS011;328;50.086;8.576;2023-02-18T11:39:50;0.90;;;0.50;;
691;SDS011;328;50.086;8.576;2023-02-18T11:42:20;1.33;;;0.70;;
691;SDS011;328;50.086;8.576;2023-02-18T11:44:50;1.00;;;0.60;;
691;SDS011;328;50.086;8.576;2023-02-18T11:47:20;1.47;;;0.83;;
691;SDS011;328;50.086;8.576;2023-02-18T11:50:00;0.90;;;0.60;;
691;SDS011;328;50.086;8.576;2023-02-18T11:52:32;0.93;;;0.70;;
691;SDS011;328;50.086;8.576;2023-02-18T11:55:02;1.30;;;0.70;;
691;SDS011;328;50.086;8.576;2023-02-18T11:57:34;0.90;;;0.70;;
691;SDS011;328;50.086;8.576;2023-02-18T12:00:09;1.30;;;0.67;;
691;SDS011;328;50.086;8.576;2023-02-18T12:02:42;1.20;;;0.90;;
691;SDS011;328;50.086;8.576;2023-02-18T12:05:10;1.03;;;0.70;;
691;SDS011;328;50.086;8.576;2023-02-18T12:07:41;1.20;;;0.80;;
691;SDS011;328;50.086;8.576;2023-02-18T12:10:11;1.03;;;0.80;;
691;SDS011;328;50.086;8.576;2023-02-18T12:12:44;1.53;;;1.03;;
691;SDS011;328;50.086;8.576;2023-02-18T12:15:15;1.93;;;0.80;;
691;SDS011;328;50.086;8.576;2023-02-18T12:17:48;2.40;;;1.00;;
691;SDS011;328;50.086;8.576;2023-02-18T12:23:33;1.10;;;0.70;;
691;SDS011;328;50.086;8.576;2023-02-18T12:26:07;2.13;;;1.10;;
691;SDS011;328;50.086;8.576;2023-02-18T12:28:48;1.87;;;0.90;;
691;SDS011;328;50.086;8.576;2023-02-18T12:31:36;1.67;;;0.60;;
691;SDS011;328;50.086;8.576;2023-02-18T12:34:19;1.17;;;0.80;;
691;SDS011;328;50.086;8.576;2023-02-18T12:36:55;1.33;;;0.97;;
691;SDS011;328;50.086;8.576;2023-02-18T12:39:30;1.53;;;0.80;;
691;SDS011;328;50.086;8.576;2023-02-18T12:42:09;1.30;;;1.10;;
691;SDS011;328;50.086;8.576;2023-02-18T12:44:51;1.30;;;0.90;;
691;SDS011;328;50.086;8.576;2023-02-18T12:47:35;2.13;;;1.13;;
691;SDS011;328;50.086;8.576;2023-02-18T12:50:15;2.23;;;1.20;;
691;SDS011;328;50.086;8.576;2023-02-18T12:52:55;1.20;;;0.90;;
691;SDS011;328;50.086;8.576;2023-02-18T12:55:35;1.70;;;1.17;;
691;SDS011;328;50.086;8.576;2023-02-18T12:58:12;2.43;;;0.90;;
691;SDS011;328;50.086;8.576;2023-02-18T13:01:05;1.80;;;1.10;;
691;SDS011;328;50.086;8.576;2023-02-18T13:03:47;2.63;;;1.00;;
691;SDS011;328;50.086;8.576;2023-02-18T13:06:37;1.40;;;1.20;;
691;SDS011;328;50.086;8.576;2023-02-18T13:09:12;1.47;;;1.00;;
691;SDS011;328;50.086;8.576;2023-02-18T13:11:46;0.80;;;0.70;;
691;SDS011;328;50.086;8.576;2023-02-18T13:14:21;1.50;;;1.00;;
691;SDS011;328;50.086;8.576;2023-02-18T13:16:51;1.50;;;0.87;;
691;SDS011;328;50.086;8.576;2023-02-18T13:19:25;1.90;;;1.13;;
691;SDS011;328;50.086;8.576;2023-02-18T13:21:57;2.60;;;0.97;;
691;SDS011;328;50.086;8.576;2023-02-18T13:27:16;1.90;;;0.90;;
691;SDS011;328;50.086;8.576;2023-02-18T13:29:47;1.53;;;1.10;;
691;SDS011;328;50.086;8.576;2023-02-18T13:32:21;2.67;;;1.20;;
691;SDS011;328;50.086;8.576;2023-02-18T13:34:54;1.90;;;1.10;;
691;SDS011;328;50.086;8.576;2023-02-18T13:37:28;1.67;;;0.87;;
691;SDS011;328;50.086;8.576;2023-02-18T13:39:59;2.40;;;1.20;;
691;SDS011;328;50.086;8.576;2023-02-18T13:42:33;4.30;;;3.13;;
691;SDS011;328;50.086;8.576;2023-02-18T13:48:01;3.97;;;1.50;;
691;SDS011;328;50.086;8.576;2023-02-18T13:50:48;3.60;;;1.40;;
691;SDS011;328;50.086;8.576;2023-02-18T13:53:29;2.83;;;1.20;;
691;SDS011;328;50.086;8.576;2023-02-18T13:56:02;2.30;;;1.20;;
691;SDS011;328;50.086;8.576;2023-02-18T13:58:33;2.70;;;1.10;;
691;SDS011;328;50.086;8.576;2023-02-18T14:01:04;1.70;;;1.53;;
691;SDS011;328;50.086;8.576;2023-02-18T14:03:36;5.27;;;1.30;;
691;SDS011;328;50.086;8.576;2023-02-18T14:06:19;1.40;;;1.27;;
691;SDS011;328;50.086;8.576;2023-02-18T14:08:48;3.37;;;1.37;;
691;SDS011;328;50.086;8.576;2023-02-18T14:11:23;1.87;;;1.13;;
691;SDS011;328;50.086;8.576;2023-02-18T14:17:12;1.50;;;1.30;;
691;SDS011;328;50.086;8.576;2023-02-18T14:26:07;1.83;;;1.30;;
691;SDS011;328;50.086;8.576;2023-02-18T14:28:36;2.60;;;1.40;;
691;SDS011;328;50.086;8.576;2023-02-18T14:31:16;5.33;;;1.57;;
691;SDS011;328;50.086;8.576;2023-02-18T14:34:02;1.97;;;1.43;;
691;SDS011;328;50.086;8.576;2023-02-18T14:36:38;1.60;;;1.47;;
691;SDS011;328;50.086;8.576;2023-02-18T14:39:11;2.60;;;1.50;;
691;SDS011;328;50.086;8.576;2023-02-18T14:41:54;2.27;;;1.40;;
691;SDS011;328;50.086;8.576;2023-02-18T14:44:27;1.43;;;1.10;;
691;SDS011;328;50.086;8.576;2023-02-18T14:49:50;1.93;;;1.07;;
691;SDS011;328;50.086;8.576;2023-02-18T14:52:21;1.60;;;1.20;;
691;SDS011;328;50.086;8.576;2023-02-18T14:54:54;1.20;;;1.10;;
691;SDS011;328;50.086;8.576;2023-02-18T14:57:24;7.53;;;1.40;;
691;SDS011;328;50.086;8.576;2023-02-18T14:59:56;1.50;;;1.17;;
691;SDS011;328;50.086;8.576;2023-02-18T15:02:25;1.50;;;1.20;;
691;SDS011;328;50.086;8.576;2023-02-18T15:05:07;3.70;;;1.10;;
691;SDS011;328;50.086;8.576;2023-02-18T15:07:39;2.07;;;1.33;;
691;SDS011;328;50.086;8.576;2023-02-18T15:10:13;1.50;;;1.20;;
691;SDS011;328;50.086;8.576;2023-02-18T15:12:41;1.67;;;0.90;;
691;SDS011;328;50.086;8.576;2023-02-18T15:15:09;2.10;;;1.33;;
691;SDS011;328;50.086;8.576;2023-02-18T15:17:43;2.90;;;1.03;;
691;SDS011;328;50.086;8.576;2023-02-18T15:20:12;2.93;;;1.53;;
691;SDS011;328;50.086;8.576;2023-02-18T15:22:40;5.47;;;1.20;;
691;SDS011;328;50.086;8.576;2023-02-18T15:25:09;2.43;;;1.30;;
691;SDS011;328;50.086;8.576;2023-02-18T15:27:40;2.40;;;1.10;;
691;SDS011;328;50.086;8.576;2023-02-18T15:30:14;2.33;;;1.30;;
691;SDS011;328;50.086;8.576;2023-02-18T15:32:49;3.40;;;1.20;;
691;SDS011;328;50.086;8.576;2023-02-18T15:35:18;2.47;;;1.10;;
691;SDS011;328;50.086;8.576;2023-02-18T15:37:50;2.00;;;0.90;;
691;SDS011;328;50.086;8.576;2023-02-18T15:40:19;1.23;;;1.00;;
691;SDS011;328;50.086;8.576;2023-02-18T15:42:49;1.97;;;1.00;;
691;SDS011;328;50.086;8.576;2023-02-18T15:45:18;3.20;;;2.07;;
691;SDS011;328;50.086;8.576;2023-02-18T15:47:46;1.20;;;0.90;;
691;SDS011;328;50.086;8.576;2023-02-18T15:50:16;2.70;;;1.13;;
691;SDS011;328;50.086;8.576;2023-02-18T15:52:47;3.10;;;0.77;;
691;SDS011;328;50.086;8.576;2023-02-18T15:55:18;2.73;;;1.33;;
691;SDS011;328;50.086;8.576;2023-02-18T15:57:50;1.60;;;0.90;;
691;SDS011;328;50.086;8.576;2023-02-18T16:00:20;1.43;;;0.90;;
691;SDS011;328;50.086;8.576;2023-02-18T16:02:53;1.70;;;1.20;;
691;SDS011;328;50.086;8.576;2023-02-18T16:05:26;1.43;;;1.10;;
691;SDS011;328;50.086;8.576;2023-02-18T16:07:59;1.80;;;0.77;;
691;SDS011;328;50.086;8.576;2023-02-18T16:10:38;1.67;;;0.90;;
691;SDS011;328;50.086;8.576;2023-02-18T16:13:10;1.53;;;0.83;;
691;SDS011;328;50.086;8.576;2023-02-18T16:15:41;1.27;;;1.10;;
691;SDS011;328;50.086;8.576;2023-02-18T16:18:23;1.77;;;1.10;;
691;SDS011;328;50.086;8.576;2023-02-18T16:20:53;1.73;;;0.90;;
691;SDS011;328;50.086;8.576;2023-02-18T16:23:31;1.27;;;0.80;;
691;SDS011;328;50.086;8.576;2023-02-18T16:26:08;2.70;;;0.90;;
691;SDS011;328;50.086;8.576;2023-02-18T16:28:41;2.60;;;1.00;;
691;SDS011;328;50.086;8.576;2023-02-18T16:31:09;2.50;;;0.87;;
691;SDS011;328;50.086;8.576;2023-02-18T16:33:37;3.30;;;1.97;;